MAPA DE AEROPUERTO

INFORMACIÓN METAR y TAF

METAR FOR EICK
ADDS - METARS form results

(1346 UTC 26 February 2021)
Data provider http://aviationweather.gov/metar/data/
 
METAR text: EICK 261330Z 22017KT 9999 SCT016CB BKN030 09/05 Q1035 NOSIG
Conditions at: EICK (CORK ARPT/CORCAI, IE) observed 1330 UTC 26 February 2021
Temperature: 9.0°C (48°F)
Dewpoint: 5.0°C (41°F) [RH = 76%]
Pressure (altimeter): 30.56 inches Hg (1035.0 mb)
Winds: from the SW (220 degrees) at 20 MPH (17 knots; 8.7 m/s)
Visibility: 6 or more miles (10+ km)
Ceiling: 3000 feet AGL
Clouds: scattered clouds at 1600 feet AGL
broken clouds at 3000 feet AGL
Weather: no significant weather observed at this time

METAR text: EICK 261300Z 20014KT 9999 BKN020 09/05 Q1035 NOSIG
Conditions at: EICK (CORK ARPT/CORCAI, IE) observed 1300 UTC 26 February 2021
Temperature: 9.0°C (48°F)
Dewpoint: 5.0°C (41°F) [RH = 76%]
Pressure (altimeter): 30.56 inches Hg (1035.0 mb)
Winds: from the SSW (200 degrees) at 16 MPH (14 knots; 7.2 m/s)
Visibility: 6 or more miles (10+ km)
Ceiling: 2000 feet AGL
Clouds: broken clouds at 2000 feet AGL
Weather: no significant weather observed at this time

Forecast for: EICK (CORK ARPT/CORCAI, IE)
Text: TAF EICK 261100Z 2612/2712 21012KT 9999 SCT016
Forecast period: 1200 UTC 26 February 2021 to 1200 UTC 27 February 2021
Forecast type: FROM: standard forecast or significant change
Winds: from the SSW (210 degrees) at 14 MPH (12 knots; 6.2 m/s)
Visibility: 6 or more miles (10+ km)
Ceiling: at least 12,000 feet AGL
Clouds: scattered clouds at 1600 feet AGL
Weather: no significant weather forecast for this period
Text: PROB30
Forecast period: 1200 to 1900 UTC 26 February 2021
Forecast type: TEMPORARY: The following changes expected for less than half the time period
Winds: from the SSW (200 degrees) at 17 MPH (15 knots; 7.7 m/s)
gusting to 29 MPH (25 knots; 12.9 m/s)
Visibility: missing
Ceiling: unknown
Clouds: missing
Weather: no significant weather forecast for this period